Flight Track Log - Related Links

Times and Time Zones

All times are in EDT time to prevent confusion due to time zone crossing. See the N3KP flight status page for this flight to view local times or setup timezone preferences in your user account.

Time Position Orientation Groundspeed Altitude Reporting Facility
EDT Latitude Longitude Course Direction KTS MPH feet Rate Location/Type
Fri 08:52:31 AM 39.8667 -85.3333 180° South 103 119 2,300  Level Indianapolis TRACON
Fri 08:53:31 AM 39.8500 -85.3333 180° South 101 116 2,900 551 Climbing Indianapolis TRACON
Fri 08:54:09 AM 39.8286 -85.3269 167° South 102 117 3,200 471 Climbing Indianapolis Center
Fri 08:55:13 AM 39.7978 -85.3150 163° South 109 125 3,700 581 Climbing Indianapolis Center
Fri 08:56:13 AM 39.7656 -85.3025 163° South 115 132 4,400 677 Climbing Indianapolis Center
Fri 08:57:17 AM 39.7278 -85.2867 162° South 118 136 5,100 624 Climbing Indianapolis Center
Fri 08:58:18 AM 39.6931 -85.2789 170° South 123 142 5,700 585 Climbing Indianapolis Center
Fri 08:59:20 AM 39.6594 -85.2717 171° South 123 142 6,300 590 Climbing Indianapolis Center
Fri 09:00:20 AM 39.6244 -85.2619 168° South 128 147 6,900 541 Climbing Indianapolis Center
Fri 09:01:22 AM 39.5911 -85.2539 169° South 124 143 7,400 488 Climbing Indianapolis Center
Fri 09:02:23 AM 39.5558 -85.2444 168° South 128 147 7,900 484 Climbing Indianapolis Center
Fri 09:03:26 AM 39.5217 -85.2367 170° South 126 145 8,400 532 Climbing Indianapolis Center
Fri 09:04:27 AM 39.4814 -85.2264 169° South 127 146 9,000 492 Climbing Indianapolis Center
Fri 09:05:28 AM 39.4481 -85.2167 167° South 122 140 9,400 384 Climbing Indianapolis Center
Fri 09:06:32 AM 39.4139 -85.2081 169° South 124 143 9,800 387 Climbing Indianapolis Center
Fri 09:07:32 AM 39.3772 -85.1981 168° South 131 151 10,200 387 Climbing Indianapolis Center
Fri 09:08:36 AM 39.3425 -85.1894 169° South 129 148 10,600 387 Climbing Indianapolis Center
Fri 09:09:36 AM 39.3083 -85.1817 170° South 126 145 11,000 387 Climbing Indianapolis Center
Fri 09:10:40 AM 39.2658 -85.1714 169° South 130 150 11,400 339 Climbing Indianapolis Center
Fri 09:11:40 AM 39.2306 -85.1617 168° South 129 148 11,700 339 Climbing Indianapolis Center
Fri 09:12:44 AM 39.1939 -85.1531 170° South 133 153 12,100 336 Climbing Indianapolis Center
Fri 09:13:45 AM 39.1586 -85.1444 169° South 131 151 12,400 293 Climbing Indianapolis Center
Fri 09:14:47 AM 39.1219 -85.1342 168° South 134 154 12,700 293 Climbing Indianapolis Center
Fri 09:15:48 AM 39.0867 -85.1242 168° South 131 151 13,000 336 Climbing Indianapolis Center
Fri 09:16:52 AM 39.0422 -85.1144 170° South 135 155 13,400 336 Climbing Indianapolis Center
Fri 09:17:53 AM 39.0050 -85.1047 169° South 138 159 13,700 290 Climbing Indianapolis Center
Fri 09:18:56 AM 38.9686 -85.0947 168° South 136 157 14,000 339 Climbing Indianapolis Center
Fri 09:19:57 AM 38.9311 -85.0867 171° South 137 158 14,400 344 Climbing Indianapolis Center
Fri 09:20:58 AM 38.8931 -85.0764 168° South 138 159 14,700 288 Climbing Indianapolis Center
Fri 09:22:02 AM 38.8544 -85.0661 168° South 140 161 15,000 145 Climbing Indianapolis Center
Fri 09:23:02 AM 38.8050 -85.0558 171° South 152 175 15,000 48 Level Indianapolis Center
Fri 09:24:07 AM 38.7564 -85.0431 168° South 173 199 15,100  Climbing Indianapolis Center
Fri 09:25:07 AM 38.7064 -85.0303 169° South 181 208 15,000 -49 Descending Indianapolis Center
Fri 09:26:10 AM 38.6558 -85.0161 168° South 187 215 15,000  Level Indianapolis Center
Fri 09:27:11 AM 38.5978 -85.0022 169° South 188 216 15,000  Level Indianapolis Center
Fri 09:28:14 AM 38.5469 -84.9894 169° South 187 215 15,000  Level Indianapolis Center
Fri 09:29:15 AM 38.4956 -84.9756 168° South 187 215 15,000  Level Indianapolis Center
Fri 09:30:16 AM 38.4461 -84.9644 170° South 182 209 15,000  Level Indianapolis Center
Fri 09:31:20 AM 38.3894 -84.9508 169° South 179 206 15,000  Level Indianapolis Center
Fri 09:32:20 AM 38.3394 -84.9389 169° South 181 208 15,000  Level Indianapolis Center
Fri 09:33:22 AM 38.2903 -84.9261 168° South 180 207 15,000  Level Indianapolis Center
Fri 09:34:26 AM 38.2419 -84.9136 169° South 178 205 15,000  Level Indianapolis Center
Fri 09:35:26 AM 38.1922 -84.9006 168° South 181 208 15,000  Level Indianapolis Center
Fri 09:36:29 AM 38.1344 -84.8869 170° South 181 208 15,000  Level Indianapolis Center
Fri 09:37:30 AM 38.0828 -84.8756 170° South 185 213 15,000  Level Indianapolis Center
Fri 09:38:34 AM 38.0328 -84.8619 168° South 184 212 15,000  Level Indianapolis Center
Fri 09:39:36 AM 37.9822 -84.8486 168° South 183 211 15,000  Level Indianapolis Center
Fri 09:40:36 AM 37.9319 -84.8369 170° South 182 209 15,000  Level Indianapolis Center
Fri 09:41:40 AM 37.8753 -84.8217 168° South 178 205 15,000  Level Indianapolis Center
Fri 09:42:41 AM 37.8247 -84.8108 170° South 182 209 15,000  Level Indianapolis Center
Fri 09:43:45 AM 37.7744 -84.7981 169° South 183 211 15,000  Level Indianapolis Center
Fri 09:44:47 AM 37.7247 -84.7850 168° South 183 211 15,000  Level Indianapolis Center
Fri 09:45:47 AM 37.6750 -84.7733 169° South 181 208 15,000  Level Indianapolis Center
Fri 09:46:48 AM 37.6256 -84.7608 169° South 181 208 15,000 -48 Level Indianapolis Center
Fri 09:47:52 AM 37.5667 -84.7481 170° South 183 211 14,900 -47 Descending Indianapolis Center
Fri 09:48:55 AM 37.5175 -84.7353 168° South 180 207 14,900  Level Indianapolis Center
Fri 09:49:56 AM 37.4681 -84.7242 170° South 181 208 14,900  Level Indianapolis Center
Fri 09:50:58 AM 37.4175 -84.7108 168° South 183 211 14,900  Level Indianapolis Center
Fri 09:52:01 AM 37.3689 -84.7000 170° South 178 205 14,900  Level Indianapolis Center
Fri 09:53:02 AM 37.3122 -84.6853 168° South 178 205 14,900  Level Indianapolis Center
Fri 09:54:06 AM 37.2628 -84.6736 169° South 179 206 14,900  Level Indianapolis Center
Fri 09:55:06 AM 37.2131 -84.6622 170° South 181 208 14,900  Level Indianapolis Center
Fri 09:56:07 AM 37.1650 -84.6506 169° South 176 203 14,900  Level Indianapolis Center
Fri 09:57:11 AM 37.1167 -84.6381 168° South 178 205 14,900  Level Indianapolis Center
Fri 09:58:12 AM 37.0583 -84.6250 170° South 181 208 14,900  Level Indianapolis Center
Fri 09:59:16 AM 37.0086 -84.6139 170° South 180 207 14,900  Level Indianapolis Center
Fri 10:00:16 AM 36.9589 -84.6011 168° South 182 209 14,900  Level Indianapolis Center
Fri 10:01:20 AM 36.9083 -84.5894 170° South 183 211 14,900  Level Indianapolis Center
Fri 10:02:20 AM 36.8583 -84.5767 168° South 183 211 14,900  Level Indianapolis Center
Fri 10:03:24 AM 36.8100 -84.5658 170° South 180 207 14,900  Level Indianapolis Center
Fri 10:04:24 AM 36.7594 -84.5542 170° South 182 209 14,900  Level Indianapolis Center
Fri 10:05:27 AM 36.7006 -84.5392 168° South 181 208 14,900  Level Indianapolis Center
Fri 10:06:29 AM 36.6503 -84.5267 169° South 183 211 14,900  Level Indianapolis Center
Fri 10:07:30 AM 36.6008 -84.5158 170° South 179 206 14,900  Level Indianapolis Center
Fri 10:08:33 AM 36.5503 -84.5039 169° South 184 212 14,900  Level Indianapolis Center
Fri 10:09:33 AM 36.5017 -84.4931 170° South 179 206 14,900  Level Indianapolis Center
Fri 10:10:37 AM 36.4531 -84.4814 169° South 179 206 14,900  Level Indianapolis Center
Fri 10:11:39 AM 36.3950 -84.4675 169° South 178 205 14,900  Level Indianapolis Center
Fri 10:12:42 AM 36.3444 -84.4556 169° South 182 209 14,900  Level Indianapolis Center
Fri 10:13:43 AM 36.2958 -84.4447 170° South 179 206 14,900  Level Indianapolis Center
Fri 10:14:44 AM 36.2472 -84.4333 169° South 178 205 14,900  Level Indianapolis Center
Fri 10:15:48 AM 36.1975 -84.4208 169° South 181 208 14,900  Level Indianapolis Center
Fri 10:16:49 AM 36.1483 -84.4103 170° South 180 207 14,900  Level Indianapolis Center
Fri 10:17:52 AM 36.0994 -84.3975 168° South 180 207 14,900  Level Indianapolis Center
Fri 10:18:54 AM 36.0422 -84.3847 170° South 174 200 14,900  Level Indianapolis Center
Fri 10:19:54 AM 35.9936 -84.3739 170° South 175 201 14,900  Level Indianapolis Center
Fri 10:20:58 AM 35.9447 -84.3628 170° South 176 203 14,900 45 Level Indianapolis Center
Fri 10:22:07 AM 35.8847 -84.3489 169° South 179 206 15,000 47 Climbing Atlanta Center
Fri 10:23:07 AM 35.8389 -84.3383 169° South 179 206 15,000  Level Atlanta Center
Fri 10:24:07 AM 35.7889 -84.3281 171° South 179 206 15,000  Level Atlanta Center
Fri 10:25:07 AM 35.7431 -84.3178 170° South 179 206 15,000  Level Atlanta Center
Fri 10:26:07 AM 35.6950 -84.3047 168° South 179 206 15,000  Level Atlanta Center
Fri 10:27:07 AM 35.6492 -84.2944 170° South 179 206 15,000  Level Atlanta Center
Fri 10:28:07 AM 35.6011 -84.2839 170° South 179 206 15,000  Level Atlanta Center
Fri 10:29:07 AM 35.5533 -84.2736 170° South 179 206 15,000  Level Atlanta Center
Fri 10:30:07 AM 35.5033 -84.2608 168° South 179 206 15,000  Level Atlanta Center
Fri 10:31:07 AM 35.4553 -84.2528 172° South 179 206 15,000  Level Atlanta Center
Fri 10:32:07 AM 35.4072 -84.2425 170° South 179 206 15,000  Level Atlanta Center
Fri 10:33:07 AM 35.3592 -84.2297 168° South 179 206 15,000  Level Atlanta Center
Fri 10:34:07 AM 35.3114 -84.2194 170° South 179 206 15,000  Level Atlanta Center
Fri 10:35:07 AM 35.2656 -84.2067 167° South 179 206 15,000  Level Atlanta Center
Fri 10:36:07 AM 35.2175 -84.1964 170° South 179 206 15,000  Level Atlanta Center
Fri 10:37:07 AM 35.1717 -84.1861 170° South 179 206 15,000  Level Atlanta Center
Fri 10:38:07 AM 35.1236 -84.1758 170° South 179 206 15,000  Level Atlanta Center
Fri 10:39:07 AM 35.0778 -84.1656 170° South 179 206 15,000  Level Atlanta Center
Fri 10:40:07 AM 35.0297 -84.1556 170° South 179 206 15,000  Level Atlanta Center
Fri 10:41:07 AM 34.9839 -84.1453 170° South 179 206 15,000  Level Atlanta Center
Fri 10:42:07 AM 34.9358 -84.1325 168° South 179 206 15,000  Level Atlanta Center
Fri 10:43:07 AM 34.8878 -84.1222 170° South 179 206 15,000  Level Atlanta Center
Fri 10:44:07 AM 34.8461 -84.1147 172° South 179 206 15,000  Level Atlanta Center
Fri 10:45:07 AM 34.8003 -84.1044 170° South 179 206 15,000  Level Atlanta Center
Fri 10:46:07 AM 34.7500 -84.0944 171° South 179 206 15,000  Level Atlanta Center
Fri 10:47:07 AM 34.7064 -84.0817 166° South 179 206 15,000 -50 Level Atlanta Center
Fri 10:48:07 AM 34.6542 -84.0667 167° South 179 206 14,900 -50 Descending Atlanta Center
Fri 10:49:07 AM 34.6083 -84.0539 167° South 179 206 14,900  Level Atlanta Center
Fri 10:50:07 AM 34.5622 -84.0514 177° South 179 206 14,900  Level Atlanta Center
Fri 10:51:07 AM 34.5164 -84.0539 183° South 174 200 14,900  Level Atlanta Center
Fri 10:52:07 AM 34.4706 -84.0589 185° South 169 194 14,900  Level Atlanta Center
Fri 10:53:07 AM 34.4267 -84.0639 185° South 169 194 14,900  Level Atlanta Center
Fri 10:54:07 AM 34.3786 -84.0714 187° South 164 189 14,900  Level Atlanta Center
Fri 10:55:07 AM 34.3328 -84.0764 185° South 164 189 14,900  Level Atlanta Center
Fri 10:56:07 AM 34.2869 -84.0739 177° South 170 196 14,900  Level Atlanta Center
Fri 10:57:07 AM 34.2472 -84.0639 168° South 165 190 14,900  Level Atlanta Center
Fri 10:58:07 AM 34.2014 -84.0539 170° South 165 190 14,900  Level Atlanta Center
Fri 10:59:07 AM 34.1553 -84.0414 167° South 165 190 14,900  Level Atlanta Center
Fri 11:00:07 AM 34.1094 -84.0314 170° South 165 190 14,900  Level Atlanta Center
Fri 11:01:07 AM 34.0636 -84.0189 167° South 165 190 14,900  Level Atlanta Center
Fri 11:02:07 AM 34.0133 -84.0086 170° South 165 190 14,900  Level Atlanta Center
Fri 11:03:07 AM 33.9694 -83.9961 167° South 165 190 14,900  Level Atlanta Center
Fri 11:04:07 AM 33.9258 -83.9936 177° South 165 190 14,900  Level Atlanta Center
Fri 11:05:07 AM 33.8778 -83.9989 185° South 160 184 14,900  Level Atlanta Center
Fri 11:06:07 AM 33.8319 -84.0014 183° South 160 184 14,900  Level Atlanta Center
Fri 11:07:07 AM 33.7858 -84.0064 185° South 165 190 14,900  Level Atlanta Center
Fri 11:08:07 AM 33.7400 -84.0089 183° South 165 190 14,900 50 Level Atlanta Center
Fri 11:09:07 AM 33.6983 -84.0139 186° South 165 190 15,000  Climbing Atlanta Center
Fri 11:10:07 AM 33.6522 -84.0189 185° South 165 190 14,900 -50 Descending Atlanta Center
Fri 11:11:07 AM 33.6064 -84.0214 183° South 165 190 14,900  Level Atlanta Center
Fri 11:12:07 AM 33.5606 -84.0164 175° South 160 184 14,900  Level Atlanta Center
Fri 11:13:07 AM 33.5144 -84.0064 170° South 160 184 14,900  Level Atlanta Center
Fri 11:14:07 AM 33.4686 -83.9939 167° South 160 184 14,900  Level Atlanta Center
Fri 11:15:07 AM 33.4164 -83.9792 167° South 165 190 14,900  Level Atlanta Center
Fri 11:16:07 AM 33.3706 -83.9692 170° South 165 190 14,900  Level Atlanta Center
Fri 11:17:07 AM 33.3244 -83.9567 167° South 165 190 14,900  Level Atlanta Center
Fri 11:18:07 AM 33.2808 -83.9469 169° South 165 190 14,900  Level Atlanta Center
Fri 11:19:07 AM 33.2347 -83.9344 167° South 165 190 14,900  Level Atlanta Center
Fri 11:20:07 AM 33.1889 -83.9247 170° South 160 184 14,900  Level Atlanta Center
Fri 11:21:07 AM 33.1431 -83.9122 167° South 160 184 14,900  Level Atlanta Center
Fri 11:22:07 AM 33.0969 -83.9000 167° South 165 190 14,900  Level Atlanta Center
Fri 11:23:07 AM 33.0531 -83.8900 169° South 165 190 14,900  Level Atlanta Center
Fri 11:24:07 AM 33.0092 -83.8778 167° South 165 190 14,900  Level Atlanta Center
Fri 11:25:07 AM 32.9656 -83.8706 172° South 165 190 14,900  Level Atlanta Center
Fri 11:26:07 AM 32.9194 -83.8533 163° South 165 190 14,900  Level Atlanta Center
Fri 11:27:07 AM 32.8756 -83.8433 169° South 165 190 14,900 50 Level Atlanta Center
Fri 11:28:07 AM 32.8319 -83.8311 167° South 165 190 15,000  Climbing Atlanta Center
Fri 11:29:07 AM 32.7858 -83.8189 167° South 165 190 14,900 -50 Descending Atlanta Center
Fri 11:30:07 AM 32.7400 -83.8117 172° South 165 190 14,900  Level Atlanta Center
Fri 11:31:07 AM 32.6939 -83.7994 167° South 165 190 14,900 50 Level Atlanta Center
Fri 11:32:07 AM 32.6500 -83.7872 167° South 165 190 15,000  Climbing Atlanta Center
Fri 11:33:07 AM 32.6042 -83.7750 167° South 165 190 14,900 -50 Descending Atlanta Center
Fri 11:34:07 AM 32.5583 -83.7653 170° South 160 184 14,900  Level Atlanta Center
Fri 11:35:07 AM 32.5122 -83.7531 167° South 165 190 14,900  Level Atlanta Center
Fri 11:36:07 AM 32.4664 -83.7433 170° South 165 190 14,900  Level Atlanta Center
Fri 11:37:07 AM 32.4203 -83.7311 167° South 165 190 14,900  Level Atlanta Center
Fri 11:38:07 AM 32.3767 -83.7192 167° South 165 190 14,900  Level Atlanta Center
Fri 11:40:02 AM 32.2914 -83.6961 167° South 164 189 14,900  Level Jacksonville Center
Fri 11:41:02 AM 32.2475 -83.6861 169° South 164 189 14,900  Level Jacksonville Center
Fri 11:42:02 AM 32.2058 -83.6758 168° South 164 189 14,900 50 Level Jacksonville Center
Fri 11:43:02 AM 32.1600 -83.6631 167° South 164 189 15,000 50 Climbing Jacksonville Center
Fri 11:44:02 AM 32.1161 -83.6531 169° South 164 189 15,000  Level Jacksonville Center
Fri 11:45:02 AM 32.0703 -83.6428 169° South 164 189 15,000  Level Jacksonville Center
Fri 11:46:02 AM 32.0267 -83.6325 169° South 164 189 15,000 -50 Level Jacksonville Center
Fri 11:47:02 AM 31.9828 -83.6200 166° South 164 189 14,900 -50 Descending Jacksonville Center
Fri 11:48:02 AM 31.9389 -83.6100 169° South 164 189 14,900  Level Jacksonville Center
Fri 11:49:02 AM 31.8953 -83.5972 166° South 164 189 14,900 50 Level Jacksonville Center
Fri 11:50:02 AM 31.8536 -83.5872 168° South 164 189 15,000 50 Climbing Jacksonville Center
Fri 11:51:02 AM 31.8036 -83.5747 168° South 164 189 15,000 -50 Level Jacksonville Center
Fri 11:52:02 AM 31.7597 -83.5644 169° South 164 189 14,900 -50 Descending Jacksonville Center
Fri 11:53:02 AM 31.7158 -83.5544 169° South 164 189 14,900  Level Jacksonville Center
Fri 11:54:02 AM 31.6700 -83.5444 169° South 164 189 14,900  Level Jacksonville Center
Fri 11:55:02 AM 31.6261 -83.5342 169° South 164 189 14,900  Level Jacksonville Center
Fri 11:56:02 AM 31.5825 -83.5217 166° South 164 189 14,900 43 Level Jacksonville Center
Fri 11:57:22 AM 31.5261 -83.5117 171° South 159 183 15,000 43 Climbing Jacksonville Center
Fri 11:58:22 AM 31.4822 -83.4992 166° South 160 184 15,000  Level Jacksonville Center
Fri 11:59:23 AM 31.4386 -83.4917 172° South 162 186 15,000  Level Jacksonville Center
Fri 12:00:24 PM 31.3928 -83.4792 167° South 162 186 15,000  Level Jacksonville Center
Fri 12:01:24 PM 31.3447 -83.4667 167° South 163 188 15,000  Level Jacksonville Center
Fri 12:02:25 PM 31.3031 -83.4567 168° South 163 188 15,000  Level Jacksonville Center
Fri 12:03:31 PM 31.2531 -83.4417 166° South 163 188 15,000 -47 Level Jacksonville Center
Fri 12:04:32 PM 31.2092 -83.4342 172° South 163 188 14,900  Descending Jacksonville Center
Fri 12:05:33 PM 31.1611 -83.4219 168° South 164 189 15,000  Climbing Jacksonville Center
Fri 12:06:33 PM 31.1172 -83.4119 169° South 164 189 14,900  Descending Jacksonville Center
Fri 12:07:34 PM 31.0736 -83.4164 185° South 162 186 15,000 49 Climbing Jacksonville Center
Fri 12:08:35 PM 31.0275 -83.4308 195° South 161 185 15,000 -50 Level Jacksonville Center
Fri 12:09:35 PM 30.9856 -83.4378 188° South 164 189 14,900  Descending Jacksonville Center
Fri 12:10:36 PM 30.9397 -83.4497 193° South 158 182 15,000 50 Climbing Jacksonville Center
Fri 12:11:36 PM 30.8936 -83.4567 187° South 159 183 15,000  Level Jacksonville Center
Fri 12:13:02 PM 30.8372 -83.4636 186° South 162 186 15,000  Level Jacksonville Center
Fri 12:14:02 PM 30.7956 -83.4753 194° South 162 186 15,000 -50 Level Jacksonville Center
Fri 12:15:02 PM 30.7517 -83.4825 188° South 162 186 14,900 -50 Descending Jacksonville Center
Fri 12:16:02 PM 30.7056 -83.4967 195° South 162 186 14,900  Level Jacksonville Center
Fri 12:17:02 PM 30.6700 -83.5011 186° South 162 186 14,900 50 Level Jacksonville Center
Fri 12:18:02 PM 30.6200 -83.5153 194° South 162 186 15,000 50 Climbing Jacksonville Center
Fri 12:19:02 PM 30.5761 -83.5247 190° South 162 186 15,000  Level Jacksonville Center
Fri 12:20:02 PM 30.5322 -83.5269 182° South 162 186 15,000  Level Jacksonville Center
Fri 12:21:02 PM 30.4842 -83.5289 182° South 162 186 15,000  Level Jacksonville Center
Fri 12:22:02 PM 30.4403 -83.5264 177° South 162 186 15,000  Level Jacksonville Center
Fri 12:23:02 PM 30.3964 -83.5258 179° South 157 181 15,000 -50 Level Jacksonville Center
Fri 12:24:02 PM 30.3547 -83.5256 180° South 157 181 14,900 -50 Descending Jacksonville Center
Fri 12:25:02 PM 30.3150 -83.5206 174° South 157 181 14,900  Level Jacksonville Center
Fri 12:26:02 PM 30.2733 -83.5203 180° South 157 181 14,900  Level Jacksonville Center
Fri 12:27:02 PM 30.2336 -83.5178 177° South 157 181 14,900 50 Level Jacksonville Center
Fri 12:28:02 PM 30.1919 -83.5150 177° South 157 181 15,000  Climbing Jacksonville Center
Fri 12:29:02 PM 30.1503 -83.5050 168° South 157 181 14,900 -50 Descending Jacksonville Center
Fri 12:30:02 PM 30.1128 -83.4906 162° South 157 181 14,900  Level Jacksonville Center
Fri 12:31:02 PM 30.0731 -83.4783 165° South 157 181 14,900  Level Jacksonville Center
Fri 12:32:02 PM 30.0356 -83.4611 158° South 152 175 14,900  Level Jacksonville Center
Fri 12:33:02 PM 29.9981 -83.4489 164° South 147 169 14,900 50 Level Jacksonville Center
Fri 12:34:02 PM 29.9606 -83.4344 162° South 147 169 15,000  Climbing Jacksonville Center
Fri 12:35:02 PM 29.9208 -83.4222 165° South 147 169 14,900 -50 Descending Jacksonville Center
Fri 12:36:02 PM 29.8833 -83.4125 167° South 147 169 14,900 50 Level Jacksonville Center
Fri 12:37:02 PM 29.8481 -83.4025 166° South 142 163 15,000  Climbing Jacksonville Center
Fri 12:38:02 PM 29.8103 -83.3906 165° South 142 163 14,900 -50 Descending Jacksonville Center
Fri 12:39:02 PM 29.7728 -83.3831 170° South 142 163 14,900 50 Level Jacksonville Center
Fri 12:40:02 PM 29.7375 -83.3711 164° South 142 163 15,000  Climbing Jacksonville Center
Fri 12:41:02 PM 29.7000 -83.3611 167° South 142 163 14,900  Descending Jacksonville Center
Fri 12:42:02 PM 29.6603 -83.3492 165° South 142 163 15,000  Climbing Jacksonville Center
Fri 12:43:02 PM 29.6206 -83.3394 168° South 142 163 14,900  Descending Jacksonville Center
Fri 12:44:02 PM 29.5811 -83.3272 165° South 142 163 15,000  Climbing Jacksonville Center
Fri 12:45:02 PM 29.5433 -83.3175 167° South 142 163 14,900 -50 Descending Jacksonville Center
Fri 12:46:02 PM 29.5039 -83.3053 165° South 142 163 14,900  Level Jacksonville Center
Fri 12:47:02 PM 29.4683 -83.2956 167° South 142 163 14,900  Level Jacksonville Center
Fri 12:48:02 PM 29.4286 -83.2861 168° South 142 163 14,900  Level Jacksonville Center
Fri 12:49:02 PM 29.3892 -83.2739 165° South 142 163 14,900 50 Level Jacksonville Center
Fri 12:50:02 PM 29.3517 -83.2642 167° South 142 163 15,000 -100 Climbing Jacksonville Center
Fri 12:51:02 PM 29.3139 -83.2522 165° South 142 163 14,700 -400 Descending Jacksonville Center
Fri 12:52:02 PM 29.2703 -83.2400 166° South 148 170 14,200 -550 Descending Jacksonville Center
Fri 12:53:02 PM 29.2222 -83.2281 168° South 165 190 13,600 -600 Descending Jacksonville Center
Fri 12:54:02 PM 29.1742 -83.2136 165° South 171 197 13,000 -550 Descending Jacksonville Center
Fri 12:55:02 PM 29.1264 -83.2017 168° South 176 203 12,500 -550 Descending Jacksonville Center
Fri 12:56:02 PM 29.0783 -83.1872 165° South 181 208 11,900 -600 Descending Jacksonville Center
Fri 12:57:02 PM 29.0303 -83.1728 165° South 181 208 11,300 -450 Descending Jacksonville Center
Fri 12:58:02 PM 28.9844 -83.1608 167° South 181 208 11,000 -500 Descending Jacksonville Center
Fri 12:59:02 PM 28.9364 -83.1464 165° South 181 208 10,300 -650 Descending Jacksonville Center
Fri 01:00:02 PM 28.8886 -83.1369 170° South 181 208 9,700 -550 Descending Jacksonville Center
Fri 01:01:02 PM 28.8425 -83.1200 162° South 181 208 9,200 -500 Descending Jacksonville Center
Fri 01:02:02 PM 28.7989 -83.1081 167° South 181 208 8,700 -550 Descending Jacksonville Center
Fri 01:03:02 PM 28.7508 -83.0986 170° South 181 208 8,100 -500 Descending Jacksonville Center
Fri 01:04:02 PM 28.7028 -83.0819 163° South 181 208 7,700 -450 Descending Jacksonville Center
Fri 01:05:02 PM 28.6589 -83.0700 167° South 181 208 7,200 -400 Descending Jacksonville Center
Fri 01:05:47 PM 28.6167 -83.0667 176° South 166 191 7,000 -103 Descending Tampa TRACON
Fri 01:06:59 PM 28.5667 -83.0500 164° South 155 178 7,000  Level Tampa TRACON
Fri 01:07:59 PM 28.5333 -83.0333 156° South 147 169 7,000  Level Tampa TRACON
Fri 01:08:54 PM 28.5000 -83.0333 180° South 147 169 7,000  Level Tampa TRACON
Fri 01:09:54 PM 28.4500 -83.0167 164° South 149 171 7,000  Level Tampa TRACON
Fri 01:10:54 PM 28.4167 -83.0000 156° South 148 170 7,000 -238 Level Tampa TRACON
Fri 01:12:00 PM 28.3667 -82.9833 164° South 153 176 6,500 -500 Descending Tampa TRACON
Fri 01:12:54 PM 28.3333 -82.9833 180° South 160 184 6,000 -474 Descending Tampa TRACON
Fri 01:13:54 PM 28.2833 -82.9667 164° South 155 178 5,600 -500 Descending Tampa TRACON
Fri 01:14:54 PM 28.2500 -82.9500 156° South 159 183 5,000 -571 Descending Tampa TRACON
Fri 01:16:00 PM 28.2000 -82.9333 164° South 156 180 4,400 -476 Descending Tampa TRACON
Fri 01:17:00 PM 28.1667 -82.9000 139° Southeast 155 178 4,000 -200 Descending Tampa TRACON
Fri 01:18:00 PM 28.1333 -82.8833 156° South 140 161 4,000 -158 Level Tampa TRACON
Fri 01:18:54 PM 28.1000 -82.8667 156° South 135 155 3,700 -421 Descending Tampa TRACON
Fri 01:19:54 PM 28.0667 -82.8500 156° South 154 177 3,200 -600 Descending Tampa TRACON
Fri 01:20:54 PM 28.0333 -82.8167 139° Southeast 158 182 2,500 -313 Descending Tampa TRACON
Fri 01:21:49 PM 28.0000 -82.8000 156° South 139 160 2,600 50 Climbing Tampa TRACON
Fri 01:22:55 PM 27.9667 -82.7667 139° Southeast 138 159 2,600  Level Tampa TRACON
Fri 01:23:55 PM 27.9333 -82.7500 156° South 135 155 2,600  Level Tampa TRACON
Fri 01:24:55 PM 27.9000 -82.7167 139° Southeast 139 160 2,600 -238 Level Tampa TRACON
Fri 01:26:01 PM 27.8667 -82.6833 139° Southeast 147 169 2,100 -450 Descending Tampa TRACON
Fri 01:26:55 PM 27.8333 -82.6667 156° South 158 182 1,700 -500 Descending Tampa TRACON
Fri 01:27:49 PM 27.8000 -82.6500 156° South 145 167 1,200 -737 Descending Tampa TRACON
Fri 01:28:49 PM 27.7833 -82.6167 119° Southeast 122 140 300 -900 Descending Tampa TRACON
Fri 01:31:00 PM 27.7651 -82.6270 161° South  Level Estimated
Fri 01:38:00 PM 27.7651 -82.6270 161° South  Level Estimated

Login

Don't have an account? Register now (free) for customized features, flight alerts, and more!